Pagina principale
METAR-TAF:

METAR-TAF

Aeroporti :

Huesca, Spagna

latitudine: 42-04-32N, longitudine: 0-18-58W, altezza: 539 m

Osservazione

Il bollettino è stato emesso 22 minuti fa, alle 19:30 UTC
Vento 2 kt da nord-est
Temperature 10°C
Pressione 1025 hPa
Visibilità 10 km o più
nessuna nube inferiore a 1500 m e nessun cumulonembo

METAR: LEHC 161930Z AUTO 05002KT CAVOK 10/// Q1025

Ora: 20:52 (19:52 UTC)

Previsione

Il bollettino è stato emesso 5 ore e 52 minuti fa, alle 14:00 UTC
Previsione valida dal 16 alle 15 UTC al 17 alle 15 UTC
Vento 4 kt da direzioni variabili
Visibilità 10 km o più
Poco nuvoloso ad un'altezza di 2500 ft

TAF: LEHC 161400Z 1615/1715 VRB04KT 9999 FEW025 TX17/1712Z TN06/1706Z

Osservazioni e previsioni meteorologiche di più di 4000 aeroporti (messaggi METAR e TAF).

Le stazioni disponibili sono rappresentate dai dischi gialli e rossi sulla carta.

Puntare il mouse per vedere il nome della stazione.

Clicca sopra per visualizzare le osservazioni e previsioni meteorologiche.

Per cambiare la mappa : fare clic sui pulsanti verdi con una croce nera per ingrandire, il pulsante verde con un trattino per diminuire, o sulla freccia verde per le mappe adiacenti.


METAR-TAF: